sensor_id;sensor_type;location;lat;lon;timestamp;P1;durP1;ratioP1;P2;durP2;ratioP2
18196;SDS011;9224;52.422;13.024;2023-03-16T00:00:06;6.45;;;2.75;;
18196;SDS011;9224;52.422;13.024;2023-03-16T00:02:37;4.85;;;2.72;;
18196;SDS011;9224;52.422;13.024;2023-03-16T00:05:05;6.57;;;2.80;;
18196;SDS011;9224;52.422;13.024;2023-03-16T00:07:31;6.30;;;3.00;;
18196;SDS011;9224;52.422;13.024;2023-03-16T00:10:00;4.70;;;2.38;;
18196;SDS011;9224;52.422;13.024;2023-03-16T00:12:27;7.23;;;3.00;;
18196;SDS011;9224;52.422;13.024;2023-03-16T00:14:54;5.65;;;2.70;;
18196;SDS011;9224;52.422;13.024;2023-03-16T00:17:20;7.28;;;3.25;;
18196;SDS011;9224;52.422;13.024;2023-03-16T00:19:50;5.50;;;2.67;;
18196;SDS011;9224;52.422;13.024;2023-03-16T00:22:19;5.28;;;2.88;;
18196;SDS011;9224;52.422;13.024;2023-03-16T00:24:46;8.10;;;3.00;;
18196;SDS011;9224;52.422;13.024;2023-03-16T00:27:14;5.50;;;2.90;;
18196;SDS011;9224;52.422;13.024;2023-03-16T00:29:41;6.68;;;2.80;;
18196;SDS011;9224;52.422;13.024;2023-03-16T00:32:12;5.40;;;3.05;;
18196;SDS011;9224;52.422;13.024;2023-03-16T00:34:40;5.13;;;2.53;;
18196;SDS011;9224;52.422;13.024;2023-03-16T00:37:07;3.70;;;2.55;;
18196;SDS011;9224;52.422;13.024;2023-03-16T00:39:33;4.88;;;2.70;;
18196;SDS011;9224;52.422;13.024;2023-03-16T00:42:00;8.98;;;2.95;;
18196;SDS011;9224;52.422;13.024;2023-03-16T00:44:28;6.00;;;3.00;;
18196;SDS011;9224;52.422;13.024;2023-03-16T00:46:55;5.97;;;2.83;;
18196;SDS011;9224;52.422;13.024;2023-03-16T00:49:22;7.15;;;3.00;;
18196;SDS011;9224;52.422;13.024;2023-03-16T00:51:49;5.32;;;3.08;;
18196;SDS011;9224;52.422;13.024;2023-03-16T00:54:15;4.80;;;2.70;;
18196;SDS011;9224;52.422;13.024;2023-03-16T00:56:44;6.97;;;3.00;;
18196;SDS011;9224;52.422;13.024;2023-03-16T00:59:10;6.25;;;3.20;;
18196;SDS011;9224;52.422;13.024;2023-03-16T01:01:39;6.55;;;3.45;;
18196;SDS011;9224;52.422;13.024;2023-03-16T01:04:05;6.63;;;3.20;;
18196;SDS011;9224;52.422;13.024;2023-03-16T01:06:33;6.45;;;3.10;;
18196;SDS011;9224;52.422;13.024;2023-03-16T01:09:00;5.80;;;2.72;;
18196;SDS011;9224;52.422;13.024;2023-03-16T01:11:26;7.03;;;3.25;;
18196;SDS011;9224;52.422;13.024;2023-03-16T01:13:53;5.55;;;2.92;;
18196;SDS011;9224;52.422;13.024;2023-03-16T01:16:19;5.93;;;3.10;;
18196;SDS011;9224;52.422;13.024;2023-03-16T01:18:49;6.18;;;2.97;;
18196;SDS011;9224;52.422;13.024;2023-03-16T01:21:16;6.80;;;3.17;;
18196;SDS011;9224;52.422;13.024;2023-03-16T01:23:43;7.03;;;3.20;;
18196;SDS011;9224;52.422;13.024;2023-03-16T01:26:10;4.93;;;2.97;;
18196;SDS011;9224;52.422;13.024;2023-03-16T01:28:37;5.78;;;2.97;;
18196;SDS011;9224;52.422;13.024;2023-03-16T01:31:04;6.15;;;3.20;;
18196;SDS011;9224;52.422;13.024;2023-03-16T01:33:33;5.30;;;3.10;;
18196;SDS011;9224;52.422;13.024;2023-03-16T01:36:02;6.10;;;2.70;;
18196;SDS011;9224;52.422;13.024;2023-03-16T01:38:30;6.38;;;2.83;;
18196;SDS011;9224;52.422;13.024;2023-03-16T01:40:57;6.10;;;2.88;;
18196;SDS011;9224;52.422;13.024;2023-03-16T01:43:25;6.53;;;2.78;;
18196;SDS011;9224;52.422;13.024;2023-03-16T01:48:44;6.57;;;2.63;;
18196;SDS011;9224;52.422;13.024;2023-03-16T01:51:16;6.22;;;3.00;;
18196;SDS011;9224;52.422;13.024;2023-03-16T01:53:46;5.63;;;2.90;;
18196;SDS011;9224;52.422;13.024;2023-03-16T01:56:15;7.97;;;3.20;;
18196;SDS011;9224;52.422;13.024;2023-03-16T01:58:44;6.68;;;2.95;;
18196;SDS011;9224;52.422;13.024;2023-03-16T02:01:11;6.75;;;2.95;;
18196;SDS011;9224;52.422;13.024;2023-03-16T02:03:38;8.05;;;2.97;;
18196;SDS011;9224;52.422;13.024;2023-03-16T02:06:07;6.05;;;3.00;;
18196;SDS011;9224;52.422;13.024;2023-03-16T02:08:38;5.50;;;2.70;;
18196;SDS011;9224;52.422;13.024;2023-03-16T02:11:07;6.10;;;2.83;;
18196;SDS011;9224;52.422;13.024;2023-03-16T02:13:34;7.15;;;2.97;;
18196;SDS011;9224;52.422;13.024;2023-03-16T02:16:01;6.93;;;2.80;;
18196;SDS011;9224;52.422;13.024;2023-03-16T02:18:28;6.05;;;3.30;;
18196;SDS011;9224;52.422;13.024;2023-03-16T02:20:55;6.47;;;2.80;;
18196;SDS011;9224;52.422;13.024;2023-03-16T02:23:29;5.10;;;2.88;;
18196;SDS011;9224;52.422;13.024;2023-03-16T02:26:02;6.22;;;2.95;;
18196;SDS011;9224;52.422;13.024;2023-03-16T02:28:33;7.72;;;3.20;;
18196;SDS011;9224;52.422;13.024;2023-03-16T02:31:04;5.20;;;2.90;;
18196;SDS011;9224;52.422;13.024;2023-03-16T02:33:31;7.15;;;2.83;;
18196;SDS011;9224;52.422;13.024;2023-03-16T02:35:58;7.55;;;3.00;;
18196;SDS011;9224;52.422;13.024;2023-03-16T02:38:24;6.82;;;2.97;;
18196;SDS011;9224;52.422;13.024;2023-03-16T02:40:53;6.75;;;3.22;;
18196;SDS011;9224;52.422;13.024;2023-03-16T02:43:23;6.78;;;2.95;;
18196;SDS011;9224;52.422;13.024;2023-03-16T02:45:54;6.85;;;3.03;;
18196;SDS011;9224;52.422;13.024;2023-03-16T02:48:24;6.40;;;3.13;;
18196;SDS011;9224;52.422;13.024;2023-03-16T02:50:53;7.55;;;3.05;;
18196;SDS011;9224;52.422;13.024;2023-03-16T02:53:20;6.65;;;3.28;;
18196;SDS011;9224;52.422;13.024;2023-03-16T02:55:47;5.82;;;2.90;;
18196;SDS011;9224;52.422;13.024;2023-03-16T02:58:14;5.17;;;2.93;;
18196;SDS011;9224;52.422;13.024;2023-03-16T03:00:41;4.78;;;2.47;;
18196;SDS011;9224;52.422;13.024;2023-03-16T03:03:09;5.22;;;2.70;;
18196;SDS011;9224;52.422;13.024;2023-03-16T03:05:37;6.40;;;2.90;;
18196;SDS011;9224;52.422;13.024;2023-03-16T03:08:04;4.68;;;2.72;;
18196;SDS011;9224;52.422;13.024;2023-03-16T03:10:31;6.78;;;2.80;;
18196;SDS011;9224;52.422;13.024;2023-03-16T03:13:16;5.73;;;2.60;;
18196;SDS011;9224;52.422;13.024;2023-03-16T03:15:43;4.75;;;2.90;;
18196;SDS011;9224;52.422;13.024;2023-03-16T03:18:10;5.60;;;2.88;;
18196;SDS011;9224;52.422;13.024;2023-03-16T03:20:39;6.35;;;3.20;;
18196;SDS011;9224;52.422;13.024;2023-03-16T03:23:06;6.60;;;2.92;;
18196;SDS011;9224;52.422;13.024;2023-03-16T03:25:33;5.95;;;3.17;;
18196;SDS011;9224;52.422;13.024;2023-03-16T03:28:00;4.22;;;2.65;;
18196;SDS011;9224;52.422;13.024;2023-03-16T03:30:29;5.22;;;2.85;;
18196;SDS011;9224;52.422;13.024;2023-03-16T03:32:56;4.53;;;2.80;;
18196;SDS011;9224;52.422;13.024;2023-03-16T03:35:23;5.57;;;2.80;;
18196;SDS011;9224;52.422;13.024;2023-03-16T03:37:51;3.72;;;2.65;;
18196;SDS011;9224;52.422;13.024;2023-03-16T03:40:18;6.40;;;3.05;;
18196;SDS011;9224;52.422;13.024;2023-03-16T03:42:45;5.57;;;3.00;;
18196;SDS011;9224;52.422;13.024;2023-03-16T03:45:12;7.00;;;3.25;;
18196;SDS011;9224;52.422;13.024;2023-03-16T03:47:39;5.95;;;3.20;;
18196;SDS011;9224;52.422;13.024;2023-03-16T03:50:06;5.43;;;3.03;;
18196;SDS011;9224;52.422;13.024;2023-03-16T03:52:34;7.05;;;3.22;;
18196;SDS011;9224;52.422;13.024;2023-03-16T03:55:02;6.03;;;3.10;;
18196;SDS011;9224;52.422;13.024;2023-03-16T03:57:29;6.25;;;2.97;;
18196;SDS011;9224;52.422;13.024;2023-03-16T03:59:56;6.20;;;3.20;;
18196;SDS011;9224;52.422;13.024;2023-03-16T04:02:23;5.38;;;3.00;;
18196;SDS011;9224;52.422;13.024;2023-03-16T04:04:49;8.98;;;2.95;;
18196;SDS011;9224;52.422;13.024;2023-03-16T04:07:16;8.13;;;3.65;;
18196;SDS011;9224;52.422;13.024;2023-03-16T04:09:43;6.25;;;3.17;;
18196;SDS011;9224;52.422;13.024;2023-03-16T04:12:11;6.03;;;3.30;;
18196;SDS011;9224;52.422;13.024;2023-03-16T04:14:38;4.73;;;3.07;;
18196;SDS011;9224;52.422;13.024;2023-03-16T04:17:05;6.40;;;3.45;;
18196;SDS011;9224;52.422;13.024;2023-03-16T04:19:31;4.38;;;2.80;;
18196;SDS011;9224;52.422;13.024;2023-03-16T04:21:58;8.53;;;3.30;;
18196;SDS011;9224;52.422;13.024;2023-03-16T04:24:25;6.25;;;3.20;;
18196;SDS011;9224;52.422;13.024;2023-03-16T04:26:51;5.68;;;3.08;;
18196;SDS011;9224;52.422;13.024;2023-03-16T04:29:19;6.88;;;2.90;;
18196;SDS011;9224;52.422;13.024;2023-03-16T04:31:46;6.88;;;3.38;;
18196;SDS011;9224;52.422;13.024;2023-03-16T04:34:13;5.00;;;2.80;;
18196;SDS011;9224;52.422;13.024;2023-03-16T04:36:39;5.32;;;2.83;;
18196;SDS011;9224;52.422;13.024;2023-03-16T04:39:07;5.40;;;2.78;;
18196;SDS011;9224;52.422;13.024;2023-03-16T04:41:34;5.72;;;3.35;;
18196;SDS011;9224;52.422;13.024;2023-03-16T04:44:01;4.82;;;3.30;;
18196;SDS011;9224;52.422;13.024;2023-03-16T04:46:30;7.55;;;3.45;;
18196;SDS011;9224;52.422;13.024;2023-03-16T04:48:56;7.10;;;3.10;;
18196;SDS011;9224;52.422;13.024;2023-03-16T04:51:23;7.35;;;3.90;;
18196;SDS011;9224;52.422;13.024;2023-03-16T04:53:50;8.05;;;3.05;;
18196;SDS011;9224;52.422;13.024;2023-03-16T04:56:17;5.13;;;3.10;;
18196;SDS011;9224;52.422;13.024;2023-03-16T04:58:43;4.97;;;3.03;;
18196;SDS011;9224;52.422;13.024;2023-03-16T05:01:10;6.00;;;3.10;;
18196;SDS011;9224;52.422;13.024;2023-03-16T05:03:38;5.22;;;3.00;;
18196;SDS011;9224;52.422;13.024;2023-03-16T05:06:05;5.75;;;3.30;;
18196;SDS011;9224;52.422;13.024;2023-03-16T05:08:32;7.38;;;3.13;;
18196;SDS011;9224;52.422;13.024;2023-03-16T05:10:59;6.03;;;3.00;;
18196;SDS011;9224;52.422;13.024;2023-03-16T05:13:26;4.80;;;2.93;;
18196;SDS011;9224;52.422;13.024;2023-03-16T05:15:52;5.82;;;3.30;;
18196;SDS011;9224;52.422;13.024;2023-03-16T05:18:19;5.63;;;3.20;;
18196;SDS011;9224;52.422;13.024;2023-03-16T05:20:49;5.80;;;3.00;;
18196;SDS011;9224;52.422;13.024;2023-03-16T05:23:16;8.02;;;3.50;;
18196;SDS011;9224;52.422;13.024;2023-03-16T05:25:42;5.22;;;3.00;;
18196;SDS011;9224;52.422;13.024;2023-03-16T05:28:09;7.17;;;3.20;;
18196;SDS011;9224;52.422;13.024;2023-03-16T05:30:36;6.00;;;3.53;;
18196;SDS011;9224;52.422;13.024;2023-03-16T05:33:03;4.97;;;3.33;;
18196;SDS011;9224;52.422;13.024;2023-03-16T05:35:29;7.03;;;3.60;;
18196;SDS011;9224;52.422;13.024;2023-03-16T05:37:57;6.17;;;3.23;;
18196;SDS011;9224;52.422;13.024;2023-03-16T05:40:24;7.80;;;3.30;;
18196;SDS011;9224;52.422;13.024;2023-03-16T05:42:53;6.77;;;3.60;;
18196;SDS011;9224;52.422;13.024;2023-03-16T05:45:21;7.38;;;3.50;;
18196;SDS011;9224;52.422;13.024;2023-03-16T05:47:48;7.97;;;3.60;;
18196;SDS011;9224;52.422;13.024;2023-03-16T05:50:15;5.93;;;3.40;;
18196;SDS011;9224;52.422;13.024;2023-03-16T05:52:43;7.90;;;3.35;;
18196;SDS011;9224;52.422;13.024;2023-03-16T05:55:12;5.70;;;3.40;;
18196;SDS011;9224;52.422;13.024;2023-03-16T05:57:40;7.03;;;3.20;;
18196;SDS011;9224;52.422;13.024;2023-03-16T06:00:07;7.72;;;3.72;;
18196;SDS011;9224;52.422;13.024;2023-03-16T06:02:38;6.57;;;3.40;;
18196;SDS011;9224;52.422;13.024;2023-03-16T06:05:05;7.28;;;3.40;;
18196;SDS011;9224;52.422;13.024;2023-03-16T06:07:32;7.10;;;3.67;;
18196;SDS011;9224;52.422;13.024;2023-03-16T06:09:59;6.00;;;3.83;;
18196;SDS011;9224;52.422;13.024;2023-03-16T06:12:27;6.18;;;4.13;;
18196;SDS011;9224;52.422;13.024;2023-03-16T06:14:53;6.25;;;3.80;;
18196;SDS011;9224;52.422;13.024;2023-03-16T06:17:20;7.22;;;4.00;;
18196;SDS011;9224;52.422;13.024;2023-03-16T06:19:47;6.20;;;3.80;;
18196;SDS011;9224;52.422;13.024;2023-03-16T06:22:13;5.47;;;3.45;;
18196;SDS011;9224;52.422;13.024;2023-03-16T06:24:40;4.75;;;3.40;;
18196;SDS011;9224;52.422;13.024;2023-03-16T06:27:07;4.65;;;3.40;;
18196;SDS011;9224;52.422;13.024;2023-03-16T06:29:35;7.20;;;3.47;;
18196;SDS011;9224;52.422;13.024;2023-03-16T06:32:01;7.70;;;3.40;;
18196;SDS011;9224;52.422;13.024;2023-03-16T06:34:28;9.60;;;3.88;;
18196;SDS011;9224;52.422;13.024;2023-03-16T06:36:55;6.07;;;3.40;;
18196;SDS011;9224;52.422;13.024;2023-03-16T06:39:21;6.60;;;3.53;;
18196;SDS011;9224;52.422;13.024;2023-03-16T06:41:48;6.47;;;3.55;;
18196;SDS011;9224;52.422;13.024;2023-03-16T06:44:15;4.93;;;3.47;;
18196;SDS011;9224;52.422;13.024;2023-03-16T06:46:43;7.07;;;3.92;;
18196;SDS011;9224;52.422;13.024;2023-03-16T06:49:09;7.57;;;3.90;;
18196;SDS011;9224;52.422;13.024;2023-03-16T06:51:36;8.23;;;3.97;;
18196;SDS011;9224;52.422;13.024;2023-03-16T06:54:03;7.20;;;3.33;;
18196;SDS011;9224;52.422;13.024;2023-03-16T06:56:29;7.50;;;3.20;;
18196;SDS011;9224;52.422;13.024;2023-03-16T06:58:56;5.60;;;3.05;;
18196;SDS011;9224;52.422;13.024;2023-03-16T07:01:23;7.07;;;3.30;;
18196;SDS011;9224;52.422;13.024;2023-03-16T07:03:51;7.45;;;3.63;;
18196;SDS011;9224;52.422;13.024;2023-03-16T07:06:18;6.05;;;2.92;;
18196;SDS011;9224;52.422;13.024;2023-03-16T07:08:45;5.20;;;3.00;;
18196;SDS011;9224;52.422;13.024;2023-03-16T07:11:11;5.78;;;3.00;;
18196;SDS011;9224;52.422;13.024;2023-03-16T07:13:39;6.40;;;3.20;;
18196;SDS011;9224;52.422;13.024;2023-03-16T07:16:06;7.00;;;3.10;;
18196;SDS011;9224;52.422;13.024;2023-03-16T07:18:33;7.53;;;3.40;;
18196;SDS011;9224;52.422;13.024;2023-03-16T07:21:03;7.32;;;3.15;;
18196;SDS011;9224;52.422;13.024;2023-03-16T07:23:30;6.82;;;3.53;;
18196;SDS011;9224;52.422;13.024;2023-03-16T07:25:57;5.95;;;4.15;;
18196;SDS011;9224;52.422;13.024;2023-03-16T07:28:23;5.93;;;3.60;;
18196;SDS011;9224;52.422;13.024;2023-03-16T07:30:50;7.10;;;3.92;;
18196;SDS011;9224;52.422;13.024;2023-03-16T07:33:17;3.88;;;2.83;;
18196;SDS011;9224;52.422;13.024;2023-03-16T07:35:45;5.38;;;2.70;;
18196;SDS011;9224;52.422;13.024;2023-03-16T07:38:13;4.70;;;3.08;;
18196;SDS011;9224;52.422;13.024;2023-03-16T07:40:39;5.75;;;2.90;;
18196;SDS011;9224;52.422;13.024;2023-03-16T07:43:06;5.43;;;2.83;;
18196;SDS011;9224;52.422;13.024;2023-03-16T07:45:33;3.70;;;2.85;;
18196;SDS011;9224;52.422;13.024;2023-03-16T07:47:59;5.30;;;2.70;;
18196;SDS011;9224;52.422;13.024;2023-03-16T07:50:26;6.35;;;2.63;;
18196;SDS011;9224;52.422;13.024;2023-03-16T07:52:53;6.73;;;3.20;;
18196;SDS011;9224;52.422;13.024;2023-03-16T07:55:21;7.95;;;4.78;;
18196;SDS011;9224;52.422;13.024;2023-03-16T07:57:48;5.68;;;3.67;;
18196;SDS011;9224;52.422;13.024;2023-03-16T08:00:15;5.05;;;3.10;;
18196;SDS011;9224;52.422;13.024;2023-03-16T08:02:47;5.37;;;2.67;;
18196;SDS011;9224;52.422;13.024;2023-03-16T08:05:14;4.20;;;2.67;;
18196;SDS011;9224;52.422;13.024;2023-03-16T08:07:41;5.00;;;2.75;;
18196;SDS011;9224;52.422;13.024;2023-03-16T08:10:08;4.70;;;2.80;;
18196;SDS011;9224;52.422;13.024;2023-03-16T08:12:37;6.00;;;2.88;;
18196;SDS011;9224;52.422;13.024;2023-03-16T08:15:04;3.88;;;2.35;;
18196;SDS011;9224;52.422;13.024;2023-03-16T08:17:32;6.97;;;2.53;;
18196;SDS011;9224;52.422;13.024;2023-03-16T08:19:58;3.72;;;2.60;;
18196;SDS011;9224;52.422;13.024;2023-03-16T08:22:25;4.82;;;2.90;;
18196;SDS011;9224;52.422;13.024;2023-03-16T08:24:52;5.05;;;2.40;;
18196;SDS011;9224;52.422;13.024;2023-03-16T08:27:18;6.63;;;3.75;;
18196;SDS011;9224;52.422;13.024;2023-03-16T08:29:50;3.95;;;3.10;;
18196;SDS011;9224;52.422;13.024;2023-03-16T08:32:17;6.53;;;3.03;;
18196;SDS011;9224;52.422;13.024;2023-03-16T08:34:43;4.55;;;2.55;;
18196;SDS011;9224;52.422;13.024;2023-03-16T08:37:11;4.10;;;2.20;;
18196;SDS011;9224;52.422;13.024;2023-03-16T08:39:38;4.38;;;2.45;;
18196;SDS011;9224;52.422;13.024;2023-03-16T08:42:06;5.28;;;2.50;;
18196;SDS011;9224;52.422;13.024;2023-03-16T08:44:33;3.85;;;2.30;;
18196;SDS011;9224;52.422;13.024;2023-03-16T08:47:01;4.13;;;2.33;;
18196;SDS011;9224;52.422;13.024;2023-03-16T08:49:29;5.10;;;2.42;;
18196;SDS011;9224;52.422;13.024;2023-03-16T08:51:56;5.15;;;2.50;;
18196;SDS011;9224;52.422;13.024;2023-03-16T08:54:24;4.85;;;2.55;;
18196;SDS011;9224;52.422;13.024;2023-03-16T08:56:51;5.57;;;2.42;;
18196;SDS011;9224;52.422;13.024;2023-03-16T08:59:18;5.87;;;2.67;;
18196;SDS011;9224;52.422;13.024;2023-03-16T09:01:44;4.45;;;2.35;;
18196;SDS011;9224;52.422;13.024;2023-03-16T09:04:13;5.87;;;2.23;;
18196;SDS011;9224;52.422;13.024;2023-03-16T09:06:39;7.30;;;2.80;;
18196;SDS011;9224;52.422;13.024;2023-03-16T09:09:06;6.63;;;2.73;;
18196;SDS011;9224;52.422;13.024;2023-03-16T09:11:34;5.20;;;2.77;;
18196;SDS011;9224;52.422;13.024;2023-03-16T09:14:01;3.90;;;2.30;;
18196;SDS011;9224;52.422;13.024;2023-03-16T09:16:28;4.43;;;2.20;;
18196;SDS011;9224;52.422;13.024;2023-03-16T09:18:55;4.50;;;2.00;;
18196;SDS011;9224;52.422;13.024;2023-03-16T09:21:24;4.80;;;2.37;;
18196;SDS011;9224;52.422;13.024;2023-03-16T09:23:50;4.57;;;2.40;;
18196;SDS011;9224;52.422;13.024;2023-03-16T09:26:18;3.83;;;2.00;;
18196;SDS011;9224;52.422;13.024;2023-03-16T09:28:45;4.43;;;2.15;;
18196;SDS011;9224;52.422;13.024;2023-03-16T09:31:15;4.87;;;2.03;;
18196;SDS011;9224;52.422;13.024;2023-03-16T09:33:42;2.97;;;1.88;;
18196;SDS011;9224;52.422;13.024;2023-03-16T09:36:09;5.50;;;1.98;;
18196;SDS011;9224;52.422;13.024;2023-03-16T09:38:38;3.85;;;2.10;;
18196;SDS011;9224;52.422;13.024;2023-03-16T09:41:06;4.95;;;2.40;;
18196;SDS011;9224;52.422;13.024;2023-03-16T09:43:47;5.90;;;2.17;;
18196;SDS011;9224;52.422;13.024;2023-03-16T09:46:23;4.18;;;2.10;;
18196;SDS011;9224;52.422;13.024;2023-03-16T09:48:52;4.90;;;1.92;;
18196;SDS011;9224;52.422;13.024;2023-03-16T09:51:21;5.32;;;2.10;;
18196;SDS011;9224;52.422;13.024;2023-03-16T09:53:54;6.15;;;2.00;;
18196;SDS011;9224;52.422;13.024;2023-03-16T09:56:26;3.65;;;2.22;;
18196;SDS011;9224;52.422;13.024;2023-03-16T09:58:56;5.50;;;2.03;;
18196;SDS011;9224;52.422;13.024;2023-03-16T10:01:26;3.88;;;2.00;;
18196;SDS011;9224;52.422;13.024;2023-03-16T10:04:05;5.82;;;2.17;;
18196;SDS011;9224;52.422;13.024;2023-03-16T10:06:38;4.63;;;2.20;;
18196;SDS011;9224;52.422;13.024;2023-03-16T10:09:15;5.57;;;2.15;;
18196;SDS011;9224;52.422;13.024;2023-03-16T10:11:47;4.45;;;1.95;;
18196;SDS011;9224;52.422;13.024;2023-03-16T10:14:16;3.65;;;1.92;;
18196;SDS011;9224;52.422;13.024;2023-03-16T10:16:46;4.13;;;1.58;;
18196;SDS011;9224;52.422;13.024;2023-03-16T10:19:15;3.72;;;1.70;;
18196;SDS011;9224;52.422;13.024;2023-03-16T10:21:44;3.17;;;1.70;;
18196;SDS011;9224;52.422;13.024;2023-03-16T10:24:15;3.50;;;1.77;;
18196;SDS011;9224;52.422;13.024;2023-03-16T10:26:52;3.40;;;1.70;;
18196;SDS011;9224;52.422;13.024;2023-03-16T10:29:20;3.00;;;1.95;;
18196;SDS011;9224;52.422;13.024;2023-03-16T10:31:47;4.05;;;2.03;;
18196;SDS011;9224;52.422;13.024;2023-03-16T10:34:14;3.63;;;2.00;;
18196;SDS011;9224;52.422;13.024;2023-03-16T10:36:41;4.15;;;2.00;;
18196;SDS011;9224;52.422;13.024;2023-03-16T10:39:10;4.60;;;1.92;;
18196;SDS011;9224;52.422;13.024;2023-03-16T10:41:40;4.65;;;2.40;;
18196;SDS011;9224;52.422;13.024;2023-03-16T10:44:09;3.85;;;2.15;;
18196;SDS011;9224;52.422;13.024;2023-03-16T10:46:37;5.65;;;2.08;;
18196;SDS011;9224;52.422;13.024;2023-03-16T10:49:05;4.28;;;2.22;;
18196;SDS011;9224;52.422;13.024;2023-03-16T10:51:44;3.38;;;1.75;;
18196;SDS011;9224;52.422;13.024;2023-03-16T10:54:13;4.70;;;2.20;;
18196;SDS011;9224;52.422;13.024;2023-03-16T10:56:43;4.43;;;2.50;;
18196;SDS011;9224;52.422;13.024;2023-03-16T10:59:14;5.68;;;2.58;;
18196;SDS011;9224;52.422;13.024;2023-03-16T11:01:43;4.60;;;2.47;;
18196;SDS011;9224;52.422;13.024;2023-03-16T11:04:12;3.60;;;2.17;;
18196;SDS011;9224;52.422;13.024;2023-03-16T11:06:46;4.38;;;2.20;;
18196;SDS011;9224;52.422;13.024;2023-03-16T11:09:18;4.32;;;1.90;;
18196;SDS011;9224;52.422;13.024;2023-03-16T11:11:47;4.43;;;2.20;;
18196;SDS011;9224;52.422;13.024;2023-03-16T11:14:17;4.25;;;1.73;;
18196;SDS011;9224;52.422;13.024;2023-03-16T11:16:46;4.00;;;2.03;;
18196;SDS011;9224;52.422;13.024;2023-03-16T11:19:17;3.90;;;2.22;;
18196;SDS011;9224;52.422;13.024;2023-03-16T11:21:48;4.50;;;2.07;;
18196;SDS011;9224;52.422;13.024;2023-03-16T11:24:21;3.30;;;1.70;;
18196;SDS011;9224;52.422;13.024;2023-03-16T11:26:52;3.42;;;1.60;;
18196;SDS011;9224;52.422;13.024;2023-03-16T11:29:21;2.95;;;1.50;;
18196;SDS011;9224;52.422;13.024;2023-03-16T11:31:50;2.85;;;1.35;;
18196;SDS011;9224;52.422;13.024;2023-03-16T11:34:21;3.58;;;1.60;;
18196;SDS011;9224;52.422;13.024;2023-03-16T11:36:53;3.22;;;1.77;;
18196;SDS011;9224;52.422;13.024;2023-03-16T11:39:23;3.47;;;1.58;;
18196;SDS011;9224;52.422;13.024;2023-03-16T11:41:58;3.17;;;1.60;;
18196;SDS011;9224;52.422;13.024;2023-03-16T11:44:41;2.10;;;1.60;;
18196;SDS011;9224;52.422;13.024;2023-03-16T11:47:16;3.10;;;1.65;;
18196;SDS011;9224;52.422;13.024;2023-03-16T11:49:54;3.72;;;1.60;;
18196;SDS011;9224;52.422;13.024;2023-03-16T11:52:24;3.40;;;2.00;;
18196;SDS011;9224;52.422;13.024;2023-03-16T11:55:01;2.67;;;1.65;;
18196;SDS011;9224;52.422;13.024;2023-03-16T11:57:40;2.42;;;1.63;;
18196;SDS011;9224;52.422;13.024;2023-03-16T12:00:19;3.85;;;1.80;;
18196;SDS011;9224;52.422;13.024;2023-03-16T12:03:11;2.30;;;1.42;;
18196;SDS011;9224;52.422;13.024;2023-03-16T12:05:55;2.78;;;1.60;;
18196;SDS011;9224;52.422;13.024;2023-03-16T12:08:34;2.75;;;1.60;;
18196;SDS011;9224;52.422;13.024;2023-03-16T12:11:09;3.85;;;1.35;;
18196;SDS011;9224;52.422;13.024;2023-03-16T12:13:54;3.03;;;1.23;;
18196;SDS011;9224;52.422;13.024;2023-03-16T12:16:27;3.03;;;1.20;;
18196;SDS011;9224;52.422;13.024;2023-03-16T12:18:57;1.85;;;1.33;;
18196;SDS011;9224;52.422;13.024;2023-03-16T12:21:26;3.30;;;1.35;;
18196;SDS011;9224;52.422;13.024;2023-03-16T12:23:56;3.25;;;1.58;;
18196;SDS011;9224;52.422;13.024;2023-03-16T12:26:26;3.40;;;1.75;;
18196;SDS011;9224;52.422;13.024;2023-03-16T12:28:58;3.03;;;1.70;;
18196;SDS011;9224;52.422;13.024;2023-03-16T12:31:29;3.70;;;1.67;;
18196;SDS011;9224;52.422;13.024;2023-03-16T12:34:07;3.60;;;1.67;;
18196;SDS011;9224;52.422;13.024;2023-03-16T12:36:54;2.85;;;1.40;;
18196;SDS011;9224;52.422;13.024;2023-03-16T12:39:31;3.15;;;1.50;;
18196;SDS011;9224;52.422;13.024;2023-03-16T12:42:09;2.72;;;1.55;;
18196;SDS011;9224;52.422;13.024;2023-03-16T12:44:46;3.40;;;1.70;;
18196;SDS011;9224;52.422;13.024;2023-03-16T12:47:16;2.63;;;1.55;;
18196;SDS011;9224;52.422;13.024;2023-03-16T12:49:46;2.83;;;1.50;;
18196;SDS011;9224;52.422;13.024;2023-03-16T12:52:14;3.13;;;1.50;;
18196;SDS011;9224;52.422;13.024;2023-03-16T12:54:48;2.40;;;1.25;;
18196;SDS011;9224;52.422;13.024;2023-03-16T12:57:17;3.03;;;1.67;;
18196;SDS011;9224;52.422;13.024;2023-03-16T12:59:46;2.05;;;1.38;;
18196;SDS011;9224;52.422;13.024;2023-03-16T13:02:16;1.90;;;1.45;;
18196;SDS011;9224;52.422;13.024;2023-03-16T13:04:44;3.10;;;1.27;;
18196;SDS011;9224;52.422;13.024;2023-03-16T13:07:15;1.83;;;1.20;;
18196;SDS011;9224;52.422;13.024;2023-03-16T13:09:43;1.95;;;1.23;;
18196;SDS011;9224;52.422;13.024;2023-03-16T13:12:21;1.65;;;1.10;;
18196;SDS011;9224;52.422;13.024;2023-03-16T13:14:51;3.38;;;1.38;;
18196;SDS011;9224;52.422;13.024;2023-03-16T13:17:25;2.20;;;1.35;;
18196;SDS011;9224;52.422;13.024;2023-03-16T13:19:57;2.57;;;1.37;;
18196;SDS011;9224;52.422;13.024;2023-03-16T13:22:40;2.88;;;1.50;;
18196;SDS011;9224;52.422;13.024;2023-03-16T13:25:13;2.08;;;1.50;;
18196;SDS011;9224;52.422;13.024;2023-03-16T13:27:42;3.03;;;1.60;;
18196;SDS011;9224;52.422;13.024;2023-03-16T13:30:19;3.42;;;1.60;;
18196;SDS011;9224;52.422;13.024;2023-03-16T13:32:47;2.28;;;1.00;;
18196;SDS011;9224;52.422;13.024;2023-03-16T13:35:18;3.22;;;1.58;;
18196;SDS011;9224;52.422;13.024;2023-03-16T13:37:45;1.70;;;1.23;;
18196;SDS011;9224;52.422;13.024;2023-03-16T13:40:17;3.42;;;1.75;;
18196;SDS011;9224;52.422;13.024;2023-03-16T13:42:46;2.35;;;1.50;;
18196;SDS011;9224;52.422;13.024;2023-03-16T13:45:20;3.25;;;1.40;;
18196;SDS011;9224;52.422;13.024;2023-03-16T13:47:48;2.88;;;1.30;;
18196;SDS011;9224;52.422;13.024;2023-03-16T13:50:16;1.83;;;1.20;;
18196;SDS011;9224;52.422;13.024;2023-03-16T13:52:49;2.63;;;1.10;;
18196;SDS011;9224;52.422;13.024;2023-03-16T13:55:20;3.22;;;1.05;;
18196;SDS011;9224;52.422;13.024;2023-03-16T13:57:50;1.52;;;1.08;;
18196;SDS011;9224;52.422;13.024;2023-03-16T14:00:18;1.60;;;1.05;;
18196;SDS011;9224;52.422;13.024;2023-03-16T14:02:50;1.65;;;0.98;;
18196;SDS011;9224;52.422;13.024;2023-03-16T14:05:20;2.28;;;1.77;;
18196;SDS011;9224;52.422;13.024;2023-03-16T14:07:48;6.27;;;4.37;;
18196;SDS011;9224;52.422;13.024;2023-03-16T14:10:16;5.03;;;2.80;;
18196;SDS011;9224;52.422;13.024;2023-03-16T14:12:49;2.95;;;1.65;;
18196;SDS011;9224;52.422;13.024;2023-03-16T14:15:16;3.60;;;3.08;;
18196;SDS011;9224;52.422;13.024;2023-03-16T14:17:44;3.15;;;1.85;;
18196;SDS011;9224;52.422;13.024;2023-03-16T14:20:15;3.25;;;2.88;;
18196;SDS011;9224;52.422;13.024;2023-03-16T14:22:44;1.77;;;1.35;;
18196;SDS011;9224;52.422;13.024;2023-03-16T14:25:15;3.95;;;2.10;;
18196;SDS011;9224;52.422;13.024;2023-03-16T14:27:46;4.38;;;2.17;;
18196;SDS011;9224;52.422;13.024;2023-03-16T14:30:16;2.60;;;1.60;;
18196;SDS011;9224;52.422;13.024;2023-03-16T14:32:54;2.17;;;1.23;;
18196;SDS011;9224;52.422;13.024;2023-03-16T14:35:24;4.47;;;2.72;;
18196;SDS011;9224;52.422;13.024;2023-03-16T14:37:52;3.60;;;2.75;;
18196;SDS011;9224;52.422;13.024;2023-03-16T14:40:21;6.63;;;2.75;;
18196;SDS011;9224;52.422;13.024;2023-03-16T14:42:50;4.35;;;3.17;;
18196;SDS011;9224;52.422;13.024;2023-03-16T14:45:17;3.25;;;1.65;;
18196;SDS011;9224;52.422;13.024;2023-03-16T14:47:45;2.92;;;1.50;;
18196;SDS011;9224;52.422;13.024;2023-03-16T14:50:15;2.55;;;1.73;;
18196;SDS011;9224;52.422;13.024;2023-03-16T14:52:43;2.15;;;1.63;;
18196;SDS011;9224;52.422;13.024;2023-03-16T14:55:12;3.58;;;2.00;;
18196;SDS011;9224;52.422;13.024;2023-03-16T14:57:40;2.55;;;1.70;;
18196;SDS011;9224;52.422;13.024;2023-03-16T15:00:07;3.60;;;2.83;;